Time;durP1;ratioP1;P1;durP2;ratioP2;P2;SDS_P1;SDS_P2;PMS_P1;PMS_P2;Temp;Humidity;BMP_temperature;BMP_pressure;BME280_temperature;BME280_humidity;BME280_pressure;Samples;Min_cycle;Max_cycle;Signal;HPM_P1;HPM_P2
2023/04/05 00:07:25;;;;;;;;;;;;;;;4.42;71.26;102751.06;20798497;28;20022;-57
2023/04/05 00:17:46;;;;;;;;;;;;;;;4.39;72.36;102745.00;20800981;28;20036;-56
2023/04/05 00:28:08;;;;;;;;;;;;;;;4.31;72.56;102731.09;20800481;28;19931;-57
2023/04/05 00:38:29;;;;;;;;;;;;;;;4.24;72.18;102730.09;20802614;28;19983;-55
2023/04/05 00:48:51;;;;;;;;;;;;;;;4.16;72.29;102723.03;20792639;28;19979;-57
2023/04/05 00:59:12;;;;;;;;;;;;;;;4.10;72.22;102716.06;20795987;28;19929;-57
2023/04/05 01:09:43;;;;;;;;;;;;;;;4.01;72.60;102720.94;20774360;28;20280;-57
2023/04/05 01:20:09;;;;;;;;;;;;;;;3.92;72.88;102718.09;20810066;28;19932;-57
2023/04/05 01:30:36;;;;;;;;;;;;;;;3.83;72.55;102707.59;20790802;28;20028;-56
2023/04/05 01:40:58;;;;;;;;;;;;;;;3.80;71.81;102718.66;20794226;28;20307;-56
2023/04/05 01:51:19;;;;;;;;;;;;;;;3.81;72.38;102711.81;20798704;28;19959;-56
2023/04/05 02:01:41;;;;;;;;;;;;;;;3.74;72.08;102695.44;20790972;28;19926;-57
2023/04/05 02:12:02;;;;;;;;;;;;;;;3.69;72.36;102696.13;20772380;28;20320;-55
2023/04/05 02:22:24;;;;;;;;;;;;;;;3.66;72.38;102681.53;20778664;28;19929;-57
2023/04/05 02:32:46;;;;;;;;;;;;;;;3.55;72.13;102687.19;20797358;28;19932;-57
2023/04/05 02:43:07;;;;;;;;;;;;;;;3.47;72.37;102684.41;20801509;28;19928;-56
2023/04/05 02:53:28;;;;;;;;;;;;;;;3.40;72.57;102685.06;20801742;28;19933;-55
2023/04/05 03:03:50;;;;;;;;;;;;;;;3.36;72.48;102665.34;20781696;28;20028;-55
2023/04/05 03:14:14;;;;;;;;;;;;;;;3.26;72.53;102677.81;20772230;28;20806;-57
2023/04/05 03:24:36;;;;;;;;;;;;;;;3.17;72.72;102668.16;20820179;28;20019;-56
2023/04/05 03:34:57;;;;;;;;;;;;;;;3.12;72.70;102668.84;20786004;28;19979;-57
2023/04/05 03:45:19;;;;;;;;;;;;;;;3.05;72.40;102671.25;20783904;28;19925;-55
2023/04/05 03:55:48;;;;;;;;;;;;;;;2.94;73.05;102657.28;20810856;28;19932;-56
2023/04/05 04:06:10;;;;;;;;;;;;;;;2.89;73.58;102656.22;20797378;28;19931;-56
2023/04/05 04:16:31;;;;;;;;;;;;;;;2.87;73.75;102657.03;20784745;28;19936;-57
2023/04/05 04:26:53;;;;;;;;;;;;;;;2.87;73.53;102652.78;20799002;28;19929;-55
2023/04/05 04:37:21;;;;;;;;;;;;;;;2.78;73.73;102656.75;20802271;28;19929;-57
2023/04/05 04:47:46;;;;;;;;;;;;;;;2.65;73.70;102645.28;20791580;28;19995;-56
2023/04/05 04:58:11;;;;;;;;;;;;;;;2.56;73.51;102670.53;20805807;28;20222;-57
2023/04/05 05:08:33;;;;;;;;;;;;;;;2.49;74.15;102666.03;20794158;28;19933;-56
2023/04/05 05:18:54;;;;;;;;;;;;;;;2.45;74.49;102666.78;20781745;28;20337;-57
2023/04/05 05:29:15;;;;;;;;;;;;;;;2.49;74.52;102663.47;20799214;28;20063;-57
2023/04/05 05:39:37;;;;;;;;;;;;;;;2.51;74.49;102650.78;20795521;28;19967;-55
2023/04/05 05:49:58;;;;;;;;;;;;;;;2.57;74.98;102656.06;20790000;28;19964;-55
2023/04/05 06:00:20;;;;;;;;;;;;;;;2.67;74.58;102648.75;20795261;28;20397;-56
2023/04/05 06:10:41;;;;;;;;;;;;;;;2.78;74.21;102654.19;20817077;28;19979;-56
2023/04/05 06:21:03;;;;;;;;;;;;;;;2.91;74.45;102654.59;20792662;28;20691;-56
2023/04/05 06:31:25;;;;;;;;;;;;;;;3.11;73.53;102651.78;20806980;28;20331;-55
2023/04/05 06:41:47;;;;;;;;;;;;;;;3.36;73.85;102659.34;20796233;28;19936;-54
2023/04/05 06:52:08;;;;;;;;;;;;;;;3.59;73.94;102655.75;20806781;28;19991;-54
2023/04/05 07:02:30;;;;;;;;;;;;;;;3.78;72.42;102650.28;20804388;28;19959;-56
2023/04/05 07:12:52;;;;;;;;;;;;;;;4.05;72.28;102644.22;20803210;28;20399;-56
2023/04/05 07:23:14;;;;;;;;;;;;;;;4.27;71.59;102627.69;20814009;28;19929;-56
2023/04/05 07:33:35;;;;;;;;;;;;;;;4.54;70.44;102624.94;20797054;28;19971;-56
2023/04/05 07:43:57;;;;;;;;;;;;;;;4.82;71.36;102634.97;20798938;28;19929;-56
2023/04/05 07:54:18;;;;;;;;;;;;;;;5.04;70.23;102630.34;20801240;28;19948;-56
2023/04/05 08:04:40;;;;;;;;;;;;;;;5.25;68.80;102622.25;20802392;28;19929;-56
2023/04/05 08:15:01;;;;;;;;;;;;;;;5.52;68.73;102622.78;20800551;28;19933;-55
2023/04/05 08:25:22;;;;;;;;;;;;;;;5.71;68.71;102612.00;20786527;28;19929;-56
2023/04/05 08:35:44;;;;;;;;;;;;;;;6.00;66.71;102612.59;20795942;28;19979;-56
2023/04/05 08:46:07;;;;;;;;;;;;;;;6.27;66.90;102599.31;20804299;28;20426;-56
2023/04/05 08:56:33;;;;;;;;;;;;;;;6.54;61.59;102595.47;20796965;28;19929;-56
2023/04/05 09:06:56;;;;;;;;;;;;;;;6.74;62.69;102588.06;20783280;28;19929;-56
2023/04/05 09:17:21;;;;;;;;;;;;;;;6.90;62.80;102577.97;20787597;28;19925;-57
2023/04/05 09:27:55;;;;;;;;;;;;;;;7.12;61.03;102587.69;20790263;28;19960;-55
2023/04/05 09:38:16;;;;;;;;;;;;;;;7.27;62.18;102586.19;20788588;28;19925;-56
2023/04/05 09:48:44;;;;;;;;;;;;;;;7.37;61.83;102568.28;20788285;28;20380;-56
2023/04/05 09:59:06;;;;;;;;;;;;;;;7.54;61.62;102560.72;20794736;28;19963;-56
2023/04/05 10:09:27;;;;;;;;;;;;;;;7.84;58.55;102545.53;20790537;28;19975;-56
2023/04/05 10:19:52;;;;;;;;;;;;;;;8.05;59.21;102548.31;20783887;28;20364;-56
2023/04/05 10:30:15;;;;;;;;;;;;;;;8.17;59.76;102530.34;20791220;28;19960;-56
2023/04/05 10:40:36;;;;;;;;;;;;;;;8.23;58.07;102522.66;20793552;28;19929;-56
2023/04/05 10:50:59;;;;;;;;;;;;;;;8.12;56.33;102516.56;20777542;28;19928;-56
2023/04/05 11:01:20;;;;;;;;;;;;;;;8.39;58.42;102508.22;20788533;28;19944;-56
2023/04/05 11:11:43;;;;;;;;;;;;;;;8.75;56.64;102509.22;20783909;28;20146;-56
2023/04/05 11:22:04;;;;;;;;;;;;;;;8.93;53.84;102483.50;20802537;28;20380;-56
2023/04/05 11:32:39;;;;;;;;;;;;;;;9.14;55.11;102475.81;20800861;28;19929;-55
2023/04/05 11:43:06;;;;;;;;;;;;;;;9.38;57.56;102471.53;20803519;28;19968;-56
2023/04/05 11:53:28;;;;;;;;;;;;;;;9.59;56.54;102459.53;20800736;28;19929;-56
2023/04/05 12:03:53;;;;;;;;;;;;;;;9.80;54.91;102449.16;20807227;28;19925;-57
2023/04/05 12:14:15;;;;;;;;;;;;;;;9.87;54.50;102437.13;20797076;28;19925;-56
2023/04/05 12:24:37;;;;;;;;;;;;;;;10.08;54.77;102418.97;20794429;28;20028;-56
2023/04/05 12:34:58;;;;;;;;;;;;;;;9.82;55.75;102426.75;20802887;28;19933;-56
2023/04/05 12:45:22;;;;;;;;;;;;;;;9.82;53.95;102418.13;20795473;28;19925;-56
2023/04/05 12:55:47;;;;;;;;;;;;;;;9.80;54.36;102404.34;20781281;28;19925;-56
2023/04/05 13:06:08;;;;;;;;;;;;;;;9.63;57.17;102390.59;20797174;28;19925;-54
2023/04/05 13:16:29;;;;;;;;;;;;;;;9.72;54.88;102386.28;20793787;28;19960;-55
2023/04/05 13:26:51;;;;;;;;;;;;;;;10.10;53.78;102357.78;20804952;28;19960;-56
2023/04/05 13:37:12;;;;;;;;;;;;;;;10.20;55.68;102351.69;20800233;28;19975;-56
2023/04/05 13:47:34;;;;;;;;;;;;;;;10.18;52.50;102339.66;20787396;28;20306;-56
2023/04/05 13:57:56;;;;;;;;;;;;;;;10.31;53.22;102321.47;20791077;28;20423;-56
2023/04/05 14:08:17;;;;;;;;;;;;;;;10.44;55.63;102320.53;20796316;28;19925;-56
2023/04/05 14:18:39;;;;;;;;;;;;;;;10.83;52.27;102307.34;20792344;28;19925;-56
2023/04/05 14:29:00;;;;;;;;;;;;;;;11.05;51.22;102301.13;20793338;28;20760;-55
2023/04/05 14:39:22;;;;;;;;;;;;;;;11.35;54.06;102292.25;20789471;28;19933;-55
2023/04/05 14:49:43;;;;;;;;;;;;;;;11.71;53.20;102280.63;20804500;28;19999;-57
2023/04/05 15:00:06;;;;;;;;;;;;;;;11.75;52.86;102266.78;20809351;28;19979;-57
2023/04/05 15:10:27;;;;;;;;;;;;;;;12.17;54.32;102255.00;20788937;28;20577;-56
2023/04/05 15:20:49;;;;;;;;;;;;;;;12.38;47.90;102245.16;20800111;28;20365;-56
2023/04/05 15:31:10;;;;;;;;;;;;;;;12.69;52.34;102235.19;20813627;28;19929;-56
2023/04/05 15:41:33;;;;;;;;;;;;;;;12.82;46.79;102229.75;20801273;28;19933;-55
2023/04/05 15:51:54;;;;;;;;;;;;;;;12.97;54.02;102221.69;20800087;28;20446;-56
2023/04/05 16:02:16;;;;;;;;;;;;;;;13.08;53.65;102219.78;20802437;28;19929;-54
2023/04/05 16:12:37;;;;;;;;;;;;;;;13.10;54.13;102202.44;20797375;28;19925;-57
2023/04/05 16:22:58;;;;;;;;;;;;;;;13.37;53.55;102208.00;20794202;28;20258;-56
2023/04/05 16:33:20;;;;;;;;;;;;;;;13.95;51.86;102200.72;20798057;28;19925;-56
2023/04/05 16:43:42;;;;;;;;;;;;;;;12.94;54.37;102194.91;20783126;28;19983;-57
2023/04/05 16:54:03;;;;;;;;;;;;;;;12.26;55.66;102203.81;20798628;28;19929;-55
2023/04/05 17:04:25;;;;;;;;;;;;;;;11.70;57.73;102201.16;20797954;28;19925;-56
2023/04/05 17:14:46;;;;;;;;;;;;;;;11.21;49.97;102197.38;20802062;28;19929;-55
2023/04/05 17:25:08;;;;;;;;;;;;;;;10.74;56.91;102203.84;20800717;28;19925;-57
2023/04/05 17:35:29;;;;;;;;;;;;;;;10.47;58.31;102198.91;20795268;28;19925;-56
2023/04/05 17:45:53;;;;;;;;;;;;;;;10.18;60.35;102197.38;20806912;28;20274;-56
2023/04/05 17:56:14;;;;;;;;;;;;;;;9.95;60.35;102207.81;20798705;28;20742;-55
2023/04/05 18:06:36;;;;;;;;;;;;;;;9.76;61.32;102206.22;20794543;28;20732;-57
2023/04/05 18:16:58;;;;;;;;;;;;;;;9.55;61.73;102217.50;20800025;28;19983;-56
2023/04/05 18:27:19;;;;;;;;;;;;;;;9.35;62.72;102223.56;20787031;28;19960;-56
2023/04/05 18:37:41;;;;;;;;;;;;;;;9.24;63.33;102230.47;20795750;28;19979;-57
2023/04/05 18:48:02;;;;;;;;;;;;;;;9.11;63.76;102235.69;20784087;28;20511;-55
2023/04/05 18:58:24;;;;;;;;;;;;;;;8.94;63.32;102245.16;20790583;28;19929;-56
2023/04/05 19:08:46;;;;;;;;;;;;;;;8.81;63.38;102258.91;20792764;28;19925;-57
2023/04/05 19:19:08;;;;;;;;;;;;;;;8.73;63.95;102260.66;20805693;28;20019;-56
2023/04/05 19:29:30;;;;;;;;;;;;;;;8.58;65.36;102258.06;20816236;28;20422;-56
2023/04/05 19:39:53;;;;;;;;;;;;;;;8.43;64.84;102252.00;20810239;28;19988;-56
2023/04/05 19:50:33;;;;;;;;;;;;;;;8.22;65.36;102247.66;20803762;28;19933;-57
2023/04/05 20:00:55;;;;;;;;;;;;;;;8.10;66.94;102252.75;20805142;28;19931;-55
2023/04/05 20:11:17;;;;;;;;;;;;;;;7.98;67.51;102257.88;20803217;28;19979;-56
2023/04/05 20:21:39;;;;;;;;;;;;;;;7.87;67.32;102244.94;20799354;28;19972;-55
2023/04/05 20:32:01;;;;;;;;;;;;;;;7.74;67.76;102247.47;20789176;28;19929;-56
2023/04/05 20:42:24;;;;;;;;;;;;;;;7.62;69.08;102242.25;20796200;28;20435;-54
2023/04/05 20:52:46;;;;;;;;;;;;;;;7.46;69.81;102232.72;20785087;28;20367;-56
2023/04/05 21:03:07;;;;;;;;;;;;;;;7.36;69.88;102239.53;20796427;28;20296;-55
2023/04/05 21:13:29;;;;;;;;;;;;;;;7.20;70.33;102236.88;20788722;28;19925;-56
2023/04/05 21:23:51;;;;;;;;;;;;;;;7.08;71.30;102233.38;20795477;28;20372;-56
2023/04/05 21:34:12;;;;;;;;;;;;;;;6.95;71.34;102221.25;20790911;28;19994;-55
2023/04/05 21:44:33;;;;;;;;;;;;;;;6.90;71.99;102220.34;20789003;28;19952;-56
2023/04/05 21:54:55;;;;;;;;;;;;;;;6.85;72.03;102218.59;20790047;28;19999;-56
2023/04/05 22:05:16;;;;;;;;;;;;;;;6.73;71.88;102208.22;20801590;28;19975;-56
2023/04/05 22:15:50;;;;;;;;;;;;;;;6.59;72.02;102205.53;20793497;28;19929;-55
2023/04/05 22:26:11;;;;;;;;;;;;;;;6.47;72.99;102190.00;20804916;28;19984;-56
2023/04/05 22:36:33;;;;;;;;;;;;;;;6.39;73.02;102180.50;20793597;28;20385;-55
2023/04/05 22:46:54;;;;;;;;;;;;;;;6.24;73.86;102181.25;20809877;28;20460;-56
2023/04/05 22:57:16;;;;;;;;;;;;;;;6.22;73.35;102177.78;20807267;28;19925;-56
2023/04/05 23:07:37;;;;;;;;;;;;;;;6.15;73.44;102165.72;20809563;28;20427;-56
2023/04/05 23:17:59;;;;;;;;;;;;;;;6.01;73.89;102164.72;20793699;28;19941;-56
2023/04/05 23:28:20;;;;;;;;;;;;;;;5.91;74.12;102155.22;20807469;28;19976;-56
2023/04/05 23:38:41;;;;;;;;;;;;;;;5.82;74.96;102139.69;20808251;28;19948;-55
2023/04/05 23:49:03;;;;;;;;;;;;;;;5.75;75.42;102132.75;20812441;28;19933;-56
2023/04/05 23:59:24;;;;;;;;;;;;;;;5.73;75.35;102119.03;20793958;28;19995;-56
